Terminal Aerodrome Forecast
Issued by NWS

Current Version | Previous Version | Text Only | Print | Product List | Glossary On
Versions: 1 2 3 4 5 6 7 8 9 10 11 12 13 14 15 16 17
000
FTUS43 KMQT 180529
TAFIWD
TAF
KIWD 180529Z 1806/1906 24012G18KT P6SM FEW250
     FM180900 22005KT P6SM SCT200
     FM181000 22005KT P6SM -SHSN SCT200
     FM181500 23009KT P6SM BKN040
     FM181700 25009KT P6SM -SHSN BKN025
     FM182300 26006KT P6SM BKN025=

USA.gov is the U.S. government's official web portal to all federal, state and local government web resources and services.